sensor_id;sensor_type;location;lat;lon;timestamp;pressure;altitude;pressure_sealevel;temperature;humidity
73651;BME280;61944;52.538;6.108;2023-02-12T00:00:43;103729.69;;;6.69;100.00
73651;BME280;61944;52.538;6.108;2023-02-12T00:03:09;103734.41;;;6.69;100.00
73651;BME280;61944;52.538;6.108;2023-02-12T00:05:38;103738.06;;;6.54;100.00
73651;BME280;61944;52.538;6.108;2023-02-12T00:08:04;103728.03;;;6.58;100.00
73651;BME280;61944;52.538;6.108;2023-02-12T00:10:30;103734.69;;;6.72;100.00
73651;BME280;61944;52.538;6.108;2023-02-12T00:12:55;103736.06;;;6.70;100.00
73651;BME280;61944;52.538;6.108;2023-02-12T00:15:21;103730.81;;;6.53;100.00
73651;BME280;61944;52.538;6.108;2023-02-12T00:17:46;103747.50;;;6.68;100.00
73651;BME280;61944;52.538;6.108;2023-02-12T00:20:11;103738.34;;;6.37;100.00
73651;BME280;61944;52.538;6.108;2023-02-12T00:22:37;103745.31;;;6.24;100.00
73651;BME280;61944;52.538;6.108;2023-02-12T00:25:03;103745.59;;;6.33;100.00
73651;BME280;61944;52.538;6.108;2023-02-12T00:27:31;103753.66;;;6.29;100.00
73651;BME280;61944;52.538;6.108;2023-02-12T00:29:57;103748.09;;;6.40;100.00
73651;BME280;61944;52.538;6.108;2023-02-12T00:32:22;103751.44;;;6.37;100.00
73651;BME280;61944;52.538;6.108;2023-02-12T00:34:47;103750.84;;;6.45;100.00
73651;BME280;61944;52.538;6.108;2023-02-12T00:37:13;103753.06;;;6.53;100.00
73651;BME280;61944;52.538;6.108;2023-02-12T00:39:39;103754.47;;;6.30;100.00
73651;BME280;61944;52.538;6.108;2023-02-12T00:42:04;103758.69;;;6.33;100.00
73651;BME280;61944;52.538;6.108;2023-02-12T00:44:30;103739.47;;;6.21;100.00
73651;BME280;61944;52.538;6.108;2023-02-12T00:46:55;103760.03;;;6.40;100.00
73651;BME280;61944;52.538;6.108;2023-02-12T00:49:22;103752.53;;;6.51;100.00
73651;BME280;61944;52.538;6.108;2023-02-12T00:51:48;103737.50;;;6.42;100.00
73651;BME280;61944;52.538;6.108;2023-02-12T00:54:13;103753.06;;;6.53;100.00
73651;BME280;61944;52.538;6.108;2023-02-12T00:56:39;103753.38;;;6.51;100.00
73651;BME280;61944;52.538;6.108;2023-02-12T00:59:04;103754.47;;;6.50;100.00
73651;BME280;61944;52.538;6.108;2023-02-12T01:01:30;103767.56;;;6.45;100.00
73651;BME280;61944;52.538;6.108;2023-02-12T01:03:55;103761.97;;;6.45;100.00
73651;BME280;61944;52.538;6.108;2023-02-12T01:06:20;103753.09;;;6.38;100.00
73651;BME280;61944;52.538;6.108;2023-02-12T01:08:49;103763.66;;;6.46;100.00
73651;BME280;61944;52.538;6.108;2023-02-12T01:11:14;103764.22;;;6.43;100.00
73651;BME280;61944;52.538;6.108;2023-02-12T01:13:40;103756.72;;;6.38;100.00
73651;BME280;61944;52.538;6.108;2023-02-12T01:16:08;103767.03;;;6.33;100.00
73651;BME280;61944;52.538;6.108;2023-02-12T01:18:36;103756.44;;;6.35;100.00
73651;BME280;61944;52.538;6.108;2023-02-12T01:21:07;103758.94;;;6.36;100.00
73651;BME280;61944;52.538;6.108;2023-02-12T01:23:33;103763.13;;;6.28;100.00
73651;BME280;61944;52.538;6.108;2023-02-12T01:25:58;103764.78;;;6.29;100.00
73651;BME280;61944;52.538;6.108;2023-02-12T01:28:24;103762.56;;;6.31;100.00
73651;BME280;61944;52.538;6.108;2023-02-12T01:30:49;103759.78;;;6.26;100.00
73651;BME280;61944;52.538;6.108;2023-02-12T01:33:14;103755.88;;;6.27;100.00
73651;BME280;61944;52.538;6.108;2023-02-12T01:35:40;103754.50;;;6.25;100.00
73651;BME280;61944;52.538;6.108;2023-02-12T01:38:05;103756.97;;;6.21;100.00
73651;BME280;61944;52.538;6.108;2023-02-12T01:40:30;103757.81;;;6.22;100.00
73651;BME280;61944;52.538;6.108;2023-02-12T01:42:59;103751.97;;;6.23;100.00
73651;BME280;61944;52.538;6.108;2023-02-12T01:45:35;103750.88;;;6.14;100.00
73651;BME280;61944;52.538;6.108;2023-02-12T01:48:04;103731.41;;;5.99;100.00
73651;BME280;61944;52.538;6.108;2023-02-12T01:50:29;103746.13;;;6.15;100.00
73651;BME280;61944;52.538;6.108;2023-02-12T01:52:56;103748.91;;;6.04;100.00
73651;BME280;61944;52.538;6.108;2023-02-12T01:55:22;103757.53;;;6.08;100.00
73651;BME280;61944;52.538;6.108;2023-02-12T01:57:49;103752.75;;;5.88;100.00
73651;BME280;61944;52.538;6.108;2023-02-12T02:00:21;103735.25;;;5.82;100.00
73651;BME280;61944;52.538;6.108;2023-02-12T02:02:48;103757.75;;;5.86;100.00
73651;BME280;61944;52.538;6.108;2023-02-12T02:06:05;103760.13;;;5.36;100.00
73651;BME280;61944;52.538;6.108;2023-02-12T02:08:05;103752.97;;;5.71;100.00
73651;BME280;61944;52.538;6.108;2023-02-12T02:10:31;103755.22;;;5.74;100.00
73651;BME280;61944;52.538;6.108;2023-02-12T02:12:57;103735.81;;;5.84;100.00
73651;BME280;61944;52.538;6.108;2023-02-12T02:15:44;103741.41;;;5.95;100.00
73651;BME280;61944;52.538;6.108;2023-02-12T02:18:25;103737.75;;;5.94;100.00
73651;BME280;61944;52.538;6.108;2023-02-12T02:23:52;103748.75;;;5.38;100.00
73651;BME280;61944;52.538;6.108;2023-02-12T02:29:45;103736.06;;;5.78;100.00
73651;BME280;61944;52.538;6.108;2023-02-12T02:33:02;103743.00;;;5.85;100.00
73651;BME280;61944;52.538;6.108;2023-02-12T02:35:25;103728.00;;;5.81;100.00
73651;BME280;61944;52.538;6.108;2023-02-12T02:38:13;103737.44;;;5.70;100.00
73651;BME280;61944;52.538;6.108;2023-02-12T02:40:53;103722.94;;;5.63;100.00
73651;BME280;61944;52.538;6.108;2023-02-12T02:43:24;103726.91;;;5.82;100.00
73651;BME280;61944;52.538;6.108;2023-02-12T02:45:54;103734.09;;;5.73;100.00
73651;BME280;61944;52.538;6.108;2023-02-12T02:48:28;103723.56;;;5.80;100.00
73651;BME280;61944;52.538;6.108;2023-02-12T02:51:00;103723.56;;;5.80;100.00
73651;BME280;61944;52.538;6.108;2023-02-12T02:53:56;103733.53;;;5.71;100.00
73651;BME280;61944;52.538;6.108;2023-02-12T02:56:25;103728.00;;;5.76;100.00
73651;BME280;61944;52.538;6.108;2023-02-12T02:58:55;103728.50;;;5.63;100.00
73651;BME280;61944;52.538;6.108;2023-02-12T03:01:27;103719.63;;;5.61;100.00
73651;BME280;61944;52.538;6.108;2023-02-12T03:04:05;103727.72;;;5.73;100.00
73651;BME280;61944;52.538;6.108;2023-02-12T03:06:52;103722.41;;;5.66;100.00
73651;BME280;61944;52.538;6.108;2023-02-12T03:09:44;103722.97;;;5.73;100.00
73651;BME280;61944;52.538;6.108;2023-02-12T03:12:16;103722.44;;;5.76;100.00
73651;BME280;61944;52.538;6.108;2023-02-12T03:14:58;103723.53;;;5.70;100.00
73651;BME280;61944;52.538;6.108;2023-02-12T03:17:31;103708.53;;;5.61;100.00
73651;BME280;61944;52.538;6.108;2023-02-12T03:20:13;103717.69;;;5.66;100.00
73651;BME280;61944;52.538;6.108;2023-02-12T03:22:42;103720.16;;;5.58;100.00
73651;BME280;61944;52.538;6.108;2023-02-12T03:25:14;103685.72;;;5.48;100.00
73651;BME280;61944;52.538;6.108;2023-02-12T03:27:46;103711.84;;;5.73;100.00
73651;BME280;61944;52.538;6.108;2023-02-12T03:30:14;103716.59;;;5.67;100.00
73651;BME280;61944;52.538;6.108;2023-02-12T03:33:05;103712.97;;;5.67;100.00
73651;BME280;61944;52.538;6.108;2023-02-12T03:35:41;103716.84;;;5.66;100.00
73651;BME280;61944;52.538;6.108;2023-02-12T03:40:58;103718.22;;;5.58;100.00
73651;BME280;61944;52.538;6.108;2023-02-12T03:43:29;103725.19;;;5.61;100.00
73651;BME280;61944;52.538;6.108;2023-02-12T03:46:18;103728.78;;;5.56;100.00
73651;BME280;61944;52.538;6.108;2023-02-12T03:48:57;103714.59;;;5.47;100.00
73651;BME280;61944;52.538;6.108;2023-02-12T03:51:38;103738.50;;;5.48;100.00
73651;BME280;61944;52.538;6.108;2023-02-12T03:54:07;103715.16;;;5.44;100.00
73651;BME280;61944;52.538;6.108;2023-02-12T03:56:42;103732.38;;;5.52;100.00
73651;BME280;61944;52.538;6.108;2023-02-12T03:59:09;103724.56;;;5.38;100.00
73651;BME280;61944;52.538;6.108;2023-02-12T04:01:35;103727.91;;;5.45;100.00
73651;BME280;61944;52.538;6.108;2023-02-12T04:04:06;103736.81;;;5.47;100.00
73651;BME280;61944;52.538;6.108;2023-02-12T04:06:32;103734.59;;;5.49;100.00
73651;BME280;61944;52.538;6.108;2023-02-12T04:09:02;103723.44;;;5.39;100.00
73651;BME280;61944;52.538;6.108;2023-02-12T04:14:35;103738.50;;;5.48;100.00
73651;BME280;61944;52.538;6.108;2023-02-12T04:19:54;103749.59;;;5.48;100.00
73651;BME280;61944;52.538;6.108;2023-02-12T04:22:47;103754.59;;;5.46;100.00
73651;BME280;61944;52.538;6.108;2023-02-12T04:34:18;103761.81;;;5.42;100.00
73651;BME280;61944;52.538;6.108;2023-02-12T04:37:03;103765.69;;;5.41;100.00
73651;BME280;61944;52.538;6.108;2023-02-12T04:39:31;103763.94;;;5.20;100.00
73651;BME280;61944;52.538;6.108;2023-02-12T04:41:59;103762.31;;;5.34;100.00
73651;BME280;61944;52.538;6.108;2023-02-12T04:44:27;103763.97;;;5.30;100.00
73651;BME280;61944;52.538;6.108;2023-02-12T04:46:53;103769.22;;;5.26;100.00
73651;BME280;61944;52.538;6.108;2023-02-12T04:49:20;103776.72;;;5.21;100.00
73651;BME280;61944;52.538;6.108;2023-02-12T04:51:47;103773.97;;;5.26;100.00
73651;BME280;61944;52.538;6.108;2023-02-12T04:54:14;103750.63;;;5.27;100.00
73651;BME280;61944;52.538;6.108;2023-02-12T04:56:40;103774.56;;;5.43;100.00
73651;BME280;61944;52.538;6.108;2023-02-12T04:59:06;103775.72;;;5.47;100.00
73651;BME280;61944;52.538;6.108;2023-02-12T05:01:36;103775.72;;;5.47;100.00
73651;BME280;61944;52.538;6.108;2023-02-12T05:04:03;103769.03;;;5.43;100.00
73651;BME280;61944;52.538;6.108;2023-02-12T05:06:29;103755.66;;;5.35;100.00
73651;BME280;61944;52.538;6.108;2023-02-12T05:08:55;103768.28;;;5.05;100.00
73651;BME280;61944;52.538;6.108;2023-02-12T05:11:20;103763.09;;;5.19;100.00
73651;BME280;61944;52.538;6.108;2023-02-12T05:13:50;103778.47;;;5.42;100.00
73651;BME280;61944;52.538;6.108;2023-02-12T05:16:17;103774.06;;;5.46;100.00
73651;BME280;61944;52.538;6.108;2023-02-12T05:18:42;103765.16;;;5.44;100.00
73651;BME280;61944;52.538;6.108;2023-02-12T05:21:08;103770.63;;;5.24;100.00
73651;BME280;61944;52.538;6.108;2023-02-12T05:23:35;103777.00;;;5.24;100.00
73651;BME280;61944;52.538;6.108;2023-02-12T05:26:04;103769.47;;;5.15;100.00
73651;BME280;61944;52.538;6.108;2023-02-12T05:28:30;103768.66;;;5.24;100.00
73651;BME280;61944;52.538;6.108;2023-02-12T05:31:00;103780.44;;;5.42;100.00
73651;BME280;61944;52.538;6.108;2023-02-12T05:33:26;103780.72;;;5.50;100.00
73651;BME280;61944;52.538;6.108;2023-02-12T05:35:51;103780.19;;;5.54;100.00
73651;BME280;61944;52.538;6.108;2023-02-12T05:38:17;103784.31;;;5.46;100.00
73651;BME280;61944;52.538;6.108;2023-02-12T05:40:43;103781.31;;;5.58;100.00
73651;BME280;61944;52.538;6.108;2023-02-12T05:43:08;103783.56;;;5.61;100.00
73651;BME280;61944;52.538;6.108;2023-02-12T05:45:33;103779.66;;;5.62;100.00
73651;BME280;61944;52.538;6.108;2023-02-12T05:47:59;103777.59;;;5.37;100.00
73651;BME280;61944;52.538;6.108;2023-02-12T05:50:24;103777.91;;;5.40;100.00
73651;BME280;61944;52.538;6.108;2023-02-12T05:52:50;103781.22;;;5.37;100.00
73651;BME280;61944;52.538;6.108;2023-02-12T05:55:15;103775.41;;;5.44;100.00
73651;BME280;61944;52.538;6.108;2023-02-12T05:57:41;103782.94;;;5.48;100.00
73651;BME280;61944;52.538;6.108;2023-02-12T06:00:09;103779.56;;;5.41;100.00
73651;BME280;61944;52.538;6.108;2023-02-12T06:02:36;103784.28;;;5.36;100.00
73651;BME280;61944;52.538;6.108;2023-02-12T06:05:01;103784.50;;;5.19;100.00
73651;BME280;61944;52.538;6.108;2023-02-12T06:07:27;103786.91;;;5.10;100.00
73651;BME280;61944;52.538;6.108;2023-02-12T06:09:53;103795.09;;;5.32;100.00
73651;BME280;61944;52.538;6.108;2023-02-12T06:12:19;103786.78;;;5.37;100.00
73651;BME280;61944;52.538;6.108;2023-02-12T06:14:45;103797.09;;;5.47;100.00
73651;BME280;61944;52.538;6.108;2023-02-12T06:17:10;103787.38;;;5.44;100.00
73651;BME280;61944;52.538;6.108;2023-02-12T06:19:36;103794.84;;;5.39;100.00
73651;BME280;61944;52.538;6.108;2023-02-12T06:22:01;103786.16;;;5.20;100.00
73651;BME280;61944;52.538;6.108;2023-02-12T06:24:27;103792.63;;;5.36;100.00
73651;BME280;61944;52.538;6.108;2023-02-12T06:26:52;103792.94;;;5.44;100.00
73651;BME280;61944;52.538;6.108;2023-02-12T06:29:19;103775.69;;;5.42;100.00
73651;BME280;61944;52.538;6.108;2023-02-12T06:31:44;103787.84;;;5.31;100.00
73651;BME280;61944;52.538;6.108;2023-02-12T06:34:11;103785.13;;;5.41;100.00
73651;BME280;61944;52.538;6.108;2023-02-12T06:36:39;103770.25;;;5.10;100.00
73651;BME280;61944;52.538;6.108;2023-02-12T06:39:06;103779.00;;;5.34;100.00
73651;BME280;61944;52.538;6.108;2023-02-12T06:41:32;103788.78;;;5.52;100.00
73651;BME280;61944;52.538;6.108;2023-02-12T06:43:58;103777.66;;;5.52;100.00
73651;BME280;61944;52.538;6.108;2023-02-12T06:46:23;103793.53;;;5.62;100.00
73651;BME280;61944;52.538;6.108;2023-02-12T06:48:52;103798.84;;;5.68;100.00
73651;BME280;61944;52.538;6.108;2023-02-12T06:51:18;103795.53;;;5.72;100.00
73651;BME280;61944;52.538;6.108;2023-02-12T06:53:46;103783.56;;;5.61;100.00
73651;BME280;61944;52.538;6.108;2023-02-12T06:56:12;103783.47;;;5.45;100.00
73651;BME280;61944;52.538;6.108;2023-02-12T06:58:40;103789.06;;;5.56;100.00
73651;BME280;61944;52.538;6.108;2023-02-12T07:01:14;103799.13;;;5.72;100.00
73651;BME280;61944;52.538;6.108;2023-02-12T07:03:43;103800.75;;;5.63;100.00
73651;BME280;61944;52.538;6.108;2023-02-12T07:06:09;103802.44;;;5.64;100.00
73651;BME280;61944;52.538;6.108;2023-02-12T07:08:35;103807.97;;;5.54;100.00
73651;BME280;61944;52.538;6.108;2023-02-12T07:11:01;103815.78;;;5.57;100.00
73651;BME280;61944;52.538;6.108;2023-02-12T07:13:27;103816.88;;;5.56;100.00
73651;BME280;61944;52.538;6.108;2023-02-12T07:15:52;103814.94;;;5.66;100.00
73651;BME280;61944;52.538;6.108;2023-02-12T07:18:17;103818.91;;;5.76;100.00
73651;BME280;61944;52.538;6.108;2023-02-12T07:20:43;103802.72;;;5.62;100.00
73651;BME280;61944;52.538;6.108;2023-02-12T07:23:11;103830.84;;;5.81;100.00
73651;BME280;61944;52.538;6.108;2023-02-12T07:25:37;103824.16;;;5.77;100.00
73651;BME280;61944;52.538;6.108;2023-02-12T07:28:02;103826.41;;;5.80;100.00
73651;BME280;61944;52.538;6.108;2023-02-12T07:30:28;103828.59;;;5.73;100.00
73651;BME280;61944;52.538;6.108;2023-02-12T07:32:53;103833.03;;;5.69;100.00
73651;BME280;61944;52.538;6.108;2023-02-12T07:35:19;103823.03;;;5.73;100.00
73651;BME280;61944;52.538;6.108;2023-02-12T07:37:44;103842.22;;;5.75;100.00
73651;BME280;61944;52.538;6.108;2023-02-12T07:40:10;103834.72;;;5.70;100.00
73651;BME280;61944;52.538;6.108;2023-02-12T07:42:35;103848.13;;;5.88;100.00
73651;BME280;61944;52.538;6.108;2023-02-12T07:45:00;103822.47;;;5.66;100.00
73651;BME280;61944;52.538;6.108;2023-02-12T07:47:26;103837.44;;;5.65;100.00
73651;BME280;61944;52.538;6.108;2023-02-12T07:49:51;103856.91;;;5.65;100.00
73651;BME280;61944;52.538;6.108;2023-02-12T07:52:16;103853.03;;;5.71;100.00
73651;BME280;61944;52.538;6.108;2023-02-12T07:54:42;103846.91;;;5.69;100.00
73651;BME280;61944;52.538;6.108;2023-02-12T07:57:07;103853.59;;;5.73;100.00
73651;BME280;61944;52.538;6.108;2023-02-12T07:59:32;103850.25;;;5.71;100.00
73651;BME280;61944;52.538;6.108;2023-02-12T08:01:58;103845.78;;;5.65;100.00
73651;BME280;61944;52.538;6.108;2023-02-12T08:04:25;103869.00;;;5.96;100.00
73651;BME280;61944;52.538;6.108;2023-02-12T08:06:53;103863.13;;;5.87;100.00
73651;BME280;61944;52.538;6.108;2023-02-12T08:09:24;103863.41;;;5.91;100.00
73651;BME280;61944;52.538;6.108;2023-02-12T08:11:50;103871.53;;;6.03;100.00
73651;BME280;61944;52.538;6.108;2023-02-12T08:14:20;103879.38;;;6.16;100.00
73651;BME280;61944;52.538;6.108;2023-02-12T08:16:47;103867.28;;;5.85;100.00
73651;BME280;61944;52.538;6.108;2023-02-12T08:19:13;103893.72;;;5.93;100.00
73651;BME280;61944;52.538;6.108;2023-02-12T08:21:38;103889.78;;;5.83;100.00
73651;BME280;61944;52.538;6.108;2023-02-12T08:24:04;103889.34;;;5.97;100.00
73651;BME280;61944;52.538;6.108;2023-02-12T08:26:32;103887.31;;;5.92;100.00
73651;BME280;61944;52.538;6.108;2023-02-12T08:29:05;103894.81;;;5.91;100.00
73651;BME280;61944;52.538;6.108;2023-02-12T08:31:32;103900.38;;;5.91;100.00
73651;BME280;61944;52.538;6.108;2023-02-12T08:33:58;103894.94;;;6.17;100.00
73651;BME280;61944;52.538;6.108;2023-02-12T08:36:27;103899.97;;;6.25;100.00
73651;BME280;61944;52.538;6.108;2023-02-12T08:38:53;103901.63;;;6.21;100.00
73651;BME280;61944;52.538;6.108;2023-02-12T08:41:21;103899.91;;;6.00;100.00
73651;BME280;61944;52.538;6.108;2023-02-12T08:43:47;103906.06;;;6.17;100.00
73651;BME280;61944;52.538;6.108;2023-02-12T08:46:19;103910.00;;;6.26;100.00
73651;BME280;61944;52.538;6.108;2023-02-12T08:48:46;103901.66;;;6.26;100.00
73651;BME280;61944;52.538;6.108;2023-02-12T08:51:42;103909.47;;;6.40;100.00
73651;BME280;61944;52.538;6.108;2023-02-12T08:54:11;103904.94;;;6.08;100.00
73651;BME280;61944;52.538;6.108;2023-02-12T08:56:37;103912.69;;;6.01;100.00
73651;BME280;61944;52.538;6.108;2023-02-12T08:59:04;103912.47;;;6.28;100.00
73651;BME280;61944;52.538;6.108;2023-02-12T09:01:32;103910.84;;;6.37;100.00
73651;BME280;61944;52.538;6.108;2023-02-12T09:03:58;103923.13;;;6.41;100.00
73651;BME280;61944;52.538;6.108;2023-02-12T09:06:25;103928.91;;;6.24;100.00
73651;BME280;61944;52.538;6.108;2023-02-12T09:08:52;103931.38;;;6.21;100.00
73651;BME280;61944;52.538;6.108;2023-02-12T09:11:21;103924.13;;;6.20;100.00
73651;BME280;61944;52.538;6.108;2023-02-12T09:13:56;103921.69;;;6.34;100.00
73651;BME280;61944;52.538;6.108;2023-02-12T09:16:22;103927.84;;;6.46;100.00
73651;BME280;61944;52.538;6.108;2023-02-12T09:18:48;103930.34;;;6.42;100.00
73651;BME280;61944;52.538;6.108;2023-02-12T09:21:14;103937.84;;;6.47;100.00
73651;BME280;61944;52.538;6.108;2023-02-12T09:23:41;103941.19;;;6.44;100.00
73651;BME280;61944;52.538;6.108;2023-02-12T09:26:09;103939.56;;;6.58;100.00
73651;BME280;61944;52.538;6.108;2023-02-12T09:28:35;103933.94;;;6.38;100.00
73651;BME280;61944;52.538;6.108;2023-02-12T09:31:12;103938.97;;;6.46;100.00
73651;BME280;61944;52.538;6.108;2023-02-12T09:33:38;103940.13;;;6.60;100.00
73651;BME280;61944;52.538;6.108;2023-02-12T09:36:05;103937.91;;;6.72;100.00
73651;BME280;61944;52.538;6.108;2023-02-12T09:38:31;103936.47;;;6.60;100.00
73651;BME280;61944;52.538;6.108;2023-02-12T09:43:46;103934.53;;;6.55;100.00
73651;BME280;61944;52.538;6.108;2023-02-12T09:51:54;103934.00;;;7.25;100.00
73651;BME280;61944;52.538;6.108;2023-02-12T09:54:22;103932.34;;;6.93;100.00
73651;BME280;61944;52.538;6.108;2023-02-12T09:56:53;103920.38;;;6.77;100.00
73651;BME280;61944;52.538;6.108;2023-02-12T09:59:30;103943.47;;;6.93;100.00
73651;BME280;61944;52.538;6.108;2023-02-12T10:01:58;103916.75;;;6.71;100.00
73651;BME280;61944;52.538;6.108;2023-02-12T10:04:25;103940.69;;;6.93;100.00
73651;BME280;61944;52.538;6.108;2023-02-12T10:07:02;103929.56;;;6.93;100.00
73651;BME280;61944;52.538;6.108;2023-02-12T10:12:38;103930.69;;;7.02;100.00
73651;BME280;61944;52.538;6.108;2023-02-12T10:18:02;103929.56;;;7.13;100.00
73651;BME280;61944;52.538;6.108;2023-02-12T10:26:08;103927.06;;;7.27;100.00
73651;BME280;61944;52.538;6.108;2023-02-12T10:28:38;103925.66;;;7.20;100.00
73651;BME280;61944;52.538;6.108;2023-02-12T10:31:11;103935.38;;;7.32;100.00
73651;BME280;61944;52.538;6.108;2023-02-12T10:33:45;103932.84;;;7.41;100.00
73651;BME280;61944;52.538;6.108;2023-02-12T10:36:47;103942.34;;;7.35;100.00
73651;BME280;61944;52.538;6.108;2023-02-12T10:39:22;103937.31;;;7.47;100.00
73651;BME280;61944;52.538;6.108;2023-02-12T10:42:15;103921.44;;;7.43;100.00
73651;BME280;61944;52.538;6.108;2023-02-12T10:44:42;103932.59;;;7.43;100.00
73651;BME280;61944;52.538;6.108;2023-02-12T10:47:21;103940.09;;;7.47;100.00
73651;BME280;61944;52.538;6.108;2023-02-12T10:49:54;103934.25;;;7.49;100.00
73651;BME280;61944;52.538;6.108;2023-02-12T10:52:31;103923.34;;;7.58;100.00
73651;BME280;61944;52.538;6.108;2023-02-12T10:54:58;103931.16;;;7.56;100.00
73651;BME280;61944;52.538;6.108;2023-02-12T10:57:25;103938.94;;;7.64;100.00
73651;BME280;61944;52.538;6.108;2023-02-12T10:59:54;103921.13;;;7.54;100.00
73651;BME280;61944;52.538;6.108;2023-02-12T11:02:22;103933.34;;;7.69;100.00
73651;BME280;61944;52.538;6.108;2023-02-12T11:04:50;103934.47;;;7.63;100.00
73651;BME280;61944;52.538;6.108;2023-02-12T11:07:15;103925.88;;;7.59;100.00
73651;BME280;61944;52.538;6.108;2023-02-12T11:09:47;103931.66;;;7.78;100.00
73651;BME280;61944;52.538;6.108;2023-02-12T11:12:27;103926.06;;;7.83;100.00
73651;BME280;61944;52.538;6.108;2023-02-12T11:14:56;103938.28;;;7.98;100.00
73651;BME280;61944;52.538;6.108;2023-02-12T11:17:43;103930.19;;;7.96;100.00
73651;BME280;61944;52.538;6.108;2023-02-12T11:22:59;103918.75;;;7.92;100.00
73651;BME280;61944;52.538;6.108;2023-02-12T11:25:30;103926.28;;;7.97;100.00
73651;BME280;61944;52.538;6.108;2023-02-12T11:28:03;103922.31;;;8.08;100.00
73651;BME280;61944;52.538;6.108;2023-02-12T11:30:29;103922.88;;;8.10;100.00
73651;BME280;61944;52.538;6.108;2023-02-12T11:33:13;103914.78;;;8.14;100.00
73651;BME280;61944;52.538;6.108;2023-02-12T11:35:58;103917.56;;;8.14;100.00
73651;BME280;61944;52.538;6.108;2023-02-12T11:38:30;103901.38;;;8.11;100.00
73651;BME280;61944;52.538;6.108;2023-02-12T11:41:08;103869.34;;;8.03;100.00
73651;BME280;61944;52.538;6.108;2023-02-12T11:43:43;103875.72;;;8.14;100.00
73651;BME280;61944;52.538;6.108;2023-02-12T11:46:09;103886.00;;;8.19;100.00
73651;BME280;61944;52.538;6.108;2023-02-12T11:48:37;103909.38;;;8.28;100.00
73651;BME280;61944;52.538;6.108;2023-02-12T11:51:07;103915.22;;;8.31;100.00
73651;BME280;61944;52.538;6.108;2023-02-12T11:53:39;103901.28;;;8.26;100.00
73651;BME280;61944;52.538;6.108;2023-02-12T11:56:10;103905.72;;;8.32;100.00
73651;BME280;61944;52.538;6.108;2023-02-12T11:58:36;103899.03;;;8.28;100.00
73651;BME280;61944;52.538;6.108;2023-02-12T12:01:17;103909.38;;;8.28;100.00
73651;BME280;61944;52.538;6.108;2023-02-12T12:11:39;103887.59;;;8.30;100.00
73651;BME280;61944;52.538;6.108;2023-02-12T12:14:16;103875.16;;;8.12;100.00
73651;BME280;61944;52.538;6.108;2023-02-12T12:17:13;103896.03;;;8.20;100.00
73651;BME280;61944;52.538;6.108;2023-02-12T12:20:09;103887.38;;;8.21;100.00
73651;BME280;61944;52.538;6.108;2023-02-12T12:22:49;103888.75;;;8.24;100.00
73651;BME280;61944;52.538;6.108;2023-02-12T12:27:58;103885.72;;;8.20;100.00
73651;BME280;61944;52.538;6.108;2023-02-12T12:31:00;103889.06;;;8.22;100.00
73651;BME280;61944;52.538;6.108;2023-02-12T12:33:43;103886.28;;;8.22;100.00
73651;BME280;61944;52.538;6.108;2023-02-12T12:39:11;103882.84;;;8.30;100.00
73651;BME280;61944;52.538;6.108;2023-02-12T12:41:48;103879.22;;;8.30;100.00
73651;BME280;61944;52.538;6.108;2023-02-12T12:47:35;103880.94;;;8.26;100.00
73651;BME280;61944;52.538;6.108;2023-02-12T12:52:58;103867.84;;;8.21;100.00
73651;BME280;61944;52.538;6.108;2023-02-12T13:13:19;103864.50;;;8.24;100.00
73651;BME280;61944;52.538;6.108;2023-02-12T13:18:03;103844.81;;;8.00;100.00
73651;BME280;61944;52.538;6.108;2023-02-12T13:26:04;103837.59;;;7.94;100.00
73651;BME280;61944;52.538;6.108;2023-02-12T13:28:39;103845.03;;;8.09;100.00
73651;BME280;61944;52.538;6.108;2023-02-12T13:31:13;103834.13;;;8.12;100.00
73651;BME280;61944;52.538;6.108;2023-02-12T13:33:43;103832.22;;;8.03;100.00
73651;BME280;61944;52.538;6.108;2023-02-12T13:36:13;103833.81;;;8.19;100.00
73651;BME280;61944;52.538;6.108;2023-02-12T13:38:54;103842.47;;;8.18;100.00
73651;BME280;61944;52.538;6.108;2023-02-12T13:41:20;103841.63;;;8.17;100.00
73651;BME280;61944;52.538;6.108;2023-02-12T13:46:36;103842.25;;;8.09;100.00
73651;BME280;61944;52.538;6.108;2023-02-12T13:52:06;103839.28;;;8.34;100.00
73651;BME280;61944;52.538;6.108;2023-02-12T13:54:52;103845.56;;;8.55;100.00
73651;BME280;61944;52.538;6.108;2023-02-12T13:57:20;103827.84;;;8.36;100.00
73651;BME280;61944;52.538;6.108;2023-02-12T13:59:50;103830.91;;;8.34;100.00
73651;BME280;61944;52.538;6.108;2023-02-12T14:02:27;103837.03;;;8.42;100.00
73651;BME280;61944;52.538;6.108;2023-02-12T14:05:18;103817.25;;;8.33;100.00
73651;BME280;61944;52.538;6.108;2023-02-12T14:07:50;103823.53;;;8.09;100.00
73651;BME280;61944;52.538;6.108;2023-02-12T14:10:40;103815.47;;;8.08;100.00
73651;BME280;61944;52.538;6.108;2023-02-12T14:13:21;103817.00;;;8.29;100.00
73651;BME280;61944;52.538;6.108;2023-02-12T14:15:50;103820.94;;;8.23;100.00
73651;BME280;61944;52.538;6.108;2023-02-12T14:18:25;103821.00;;;8.18;100.00
73651;BME280;61944;52.538;6.108;2023-02-12T14:23:45;103826.25;;;8.25;100.00
73651;BME280;61944;52.538;6.108;2023-02-12T14:26:13;103822.00;;;8.32;100.00
73651;BME280;61944;52.538;6.108;2023-02-12T14:28:55;103807.59;;;8.20;100.00
73651;BME280;61944;52.538;6.108;2023-02-12T14:36:44;103819.91;;;8.14;100.00
73651;BME280;61944;52.538;6.108;2023-02-12T14:41:51;103817.34;;;8.23;100.00
73651;BME280;61944;52.538;6.108;2023-02-12T14:46:45;103823.69;;;8.28;100.00
73651;BME280;61944;52.538;6.108;2023-02-12T14:54:50;103822.09;;;8.22;100.00
73651;BME280;61944;52.538;6.108;2023-02-12T14:59:47;103815.28;;;7.94;100.00
73651;BME280;61944;52.538;6.108;2023-02-12T15:02:24;103813.81;;;8.07;100.00
73651;BME280;61944;52.538;6.108;2023-02-12T15:04:52;103813.59;;;7.98;100.00